Time;durP1;ratioP1;P1;durP2;ratioP2;P2;SDS_P1;SDS_P2;PMS_P1;PMS_P2;Temp;Humidity;BMP_temperature;BMP_pressure;BME280_temperature;BME280_humidity;BME280_pressure;Samples;Min_cycle;Max_cycle;Signal;HPM_P1;HPM_P2
2021/05/24 00:00:18;;;;;;;7.45;3.67;;;13.50;99.90;;;13.75;69.97;100722.81;5094093;28;20522;-81
2021/05/24 00:02:48;;;;;;;10.95;4.30;;;13.60;99.90;;;13.76;69.26;100720.16;5094439;28;20040;-81
2021/05/24 00:05:19;;;;;;;4.75;3.67;;;13.60;99.90;;;13.83;69.40;100728.88;5076172;28;20055;-81
2021/05/24 00:07:48;;;;;;;5.45;3.80;;;13.70;99.90;;;13.86;69.33;100718.19;5094155;28;20062;-79
2021/05/24 00:10:20;;;;;;;5.20;4.50;;;13.70;99.90;;;13.96;69.58;100725.03;5094077;28;20050;-80
2021/05/24 00:12:49;;;;;;;5.43;4.05;;;13.80;99.90;;;14.03;69.66;100706.25;5094085;28;20183;-79
2021/05/24 00:15:21;;;;;;;5.35;4.13;;;13.80;99.90;;;14.01;69.06;100696.59;5094201;28;20109;-80
2021/05/24 00:17:50;;;;;;;6.80;4.65;;;13.90;99.90;;;13.94;68.99;100701.16;5094483;28;20044;-80
2021/05/24 00:20:22;;;;;;;5.78;3.97;;;13.80;99.90;;;13.96;69.23;100679.84;5094451;28;20111;-80
2021/05/24 00:22:51;;;;;;;4.80;4.30;;;13.90;99.90;;;13.92;69.86;100707.41;5094201;28;20118;-80
2021/05/24 00:25:20;;;;;;;6.30;4.88;;;13.80;99.90;;;13.83;70.10;100708.47;5093636;28;20044;-79
2021/05/24 00:27:49;;;;;;;5.38;3.92;;;13.70;99.90;;;13.93;70.54;100690.53;5094133;28;20048;-80
2021/05/24 00:30:18;;;;;;;6.85;4.20;;;13.70;99.90;;;13.92;70.79;100696.75;5093790;28;20460;-81
2021/05/24 00:32:46;;;;;;;5.03;4.03;;;13.70;99.90;;;14.01;71.04;100685.94;5093837;28;20044;-80
2021/05/24 00:35:15;;;;;;;6.03;4.47;;;13.80;99.90;;;13.81;71.82;100670.41;5093615;28;20047;-80
2021/05/24 00:37:43;;;;;;;6.95;4.57;;;13.80;99.90;;;13.80;71.93;100689.91;5093706;28;20051;-80
2021/05/24 00:40:13;;;;;;;6.30;4.45;;;13.70;99.90;;;13.90;72.67;100685.31;5094032;28;20127;-80
2021/05/24 00:42:41;;;;;;;5.93;4.30;;;13.70;99.90;;;13.92;72.91;100662.19;5093572;28;20051;-79
2021/05/24 00:45:10;;;;;;;9.15;4.85;;;13.70;99.90;;;13.90;73.15;100667.53;5093547;28;20039;-80
2021/05/24 00:47:38;;;;;;;4.47;4.13;;;13.70;99.90;;;13.95;72.79;100675.44;5075376;28;20105;-80
2021/05/24 00:50:08;;;;;;;6.20;3.80;;;13.80;99.90;;;13.99;72.41;100663.84;5093523;28;20056;-79
2021/05/24 00:52:37;;;;;;;4.75;4.18;;;13.80;99.90;;;14.01;72.17;100651.38;5092717;28;20056;-79
2021/05/24 00:55:08;;;;;;;4.13;3.83;;;13.90;99.90;;;13.45;71.47;100552.44;5093383;28;20039;-80
2021/05/24 00:57:36;;;;;;;;;;;13.90;99.90;;;14.14;71.75;100661.72;5075451;28;20055;-77
2021/05/24 01:00:07;;;;;;;5.00;3.95;;;13.90;99.90;;;14.19;71.60;100650.94;5093286;28;19919;-80
2021/05/24 01:02:36;;;;;;;9.98;3.80;;;14.00;99.90;;;14.36;71.85;100657.66;5092963;28;20073;-80
2021/05/24 01:05:05;;;;;;;7.55;4.00;;;14.10;99.90;;;14.34;71.19;100640.88;5093020;28;20044;-79
2021/05/24 01:07:33;;;;;;;6.07;3.72;;;14.10;99.90;;;14.43;71.13;100642.44;5093189;28;20400;-79
2021/05/24 01:10:04;;;;;;;5.47;3.63;;;14.10;99.90;;;14.49;71.29;100636.97;5074959;28;20152;-78
2021/05/24 01:12:32;;;;;;;6.90;3.85;;;14.20;99.90;;;14.59;71.10;100637.63;5093177;28;20048;-79
2021/05/24 01:15:00;;;;;;;5.63;4.18;;;14.30;99.90;;;14.60;71.63;100655.34;5092745;28;20047;-79
2021/05/24 01:17:28;;;;;;;5.90;3.30;;;14.30;99.90;;;14.59;71.45;100627.88;5093057;28;20060;-79
2021/05/24 01:19:57;;;;;;;3.85;3.35;;;14.30;99.90;;;14.65;71.56;100616.19;5092681;28;20075;-79
2021/05/24 01:22:26;;;;;;;4.68;3.90;;;14.30;99.90;;;14.70;71.26;100617.81;5092632;28;20126;-79
2021/05/24 01:24:54;;;;;;;5.47;4.20;;;14.40;99.90;;;14.78;71.18;100620.28;5092442;28;20445;-79
2021/05/24 01:27:22;;;;;;;7.45;3.80;;;14.40;99.90;;;14.81;71.58;100623.72;5092954;28;20040;-79
2021/05/24 01:29:50;;;;;;;5.00;3.47;;;14.50;99.90;;;14.80;71.94;100622.00;5074461;28;20052;-79
2021/05/24 01:32:18;;;;;;;5.15;4.38;;;14.50;99.90;;;14.67;72.31;100601.06;5092860;28;20048;-79
2021/05/24 01:34:46;;;;;;;6.60;3.75;;;14.50;99.90;;;14.84;72.52;100622.78;5092461;28;20047;-78
2021/05/24 01:37:14;;;;;;;6.88;3.72;;;14.50;99.90;;;14.80;72.96;100629.09;5074511;28;20064;-79
2021/05/24 01:39:42;;;;;;;5.05;4.00;;;14.40;99.90;;;14.82;73.38;100622.84;5092665;28;20048;-79
2021/05/24 01:42:10;;;;;;;9.75;4.55;;;14.40;99.90;;;14.68;74.21;100621.41;5092584;28;20052;-79
2021/05/24 01:44:41;;;;;;;6.45;4.50;;;14.40;99.90;;;14.72;74.59;100605.34;5092176;28;20105;-79
2021/05/24 01:47:09;;;;;;;5.88;5.28;;;14.40;99.90;;;14.77;75.22;100619.41;5092406;28;20052;-79
2021/05/24 01:49:46;;;;;;;6.22;4.18;;;14.40;99.90;;;14.72;75.41;100618.66;5074336;28;20051;-79
2021/05/24 01:52:17;;;;;;;7.22;4.45;;;14.40;99.90;;;14.60;75.87;100629.59;5092904;28;20401;-80
2021/05/24 01:54:46;;;;;;;;;;;14.20;99.90;;;14.56;76.78;100619.94;5093745;28;20046;-80
2021/05/24 01:57:15;;;;;;;5.45;4.68;;;14.20;99.90;;;14.42;76.87;100616.72;5093243;28;19920;-79
2021/05/24 01:59:43;;;;;;;6.43;4.55;;;14.10;99.90;;;14.35;76.58;100612.47;5092829;28;20044;-79
2021/05/24 02:02:11;;;;;;;6.20;4.35;;;14.00;99.90;;;14.19;77.14;100619.91;5074209;28;20189;-80
2021/05/24 02:04:39;;;;;;;8.98;5.10;;;13.80;99.90;;;13.99;77.24;100626.59;5078536;28;20044;-79
2021/05/24 02:07:07;;;;;;;6.53;4.55;;;13.70;99.90;;;13.84;77.49;100634.91;5098929;28;20071;-79
2021/05/24 02:09:35;;;;;;;7.38;4.40;;;13.50;99.90;;;13.73;77.39;100652.84;5080806;28;20044;-79
2021/05/24 02:12:05;;;;;;;6.72;4.65;;;13.50;99.90;;;13.70;77.93;100629.00;5099373;28;20048;-79
2021/05/24 02:14:33;;;;;;;7.80;4.87;;;13.40;99.90;;;13.63;78.20;100614.09;5099260;28;20080;-78
2021/05/24 02:17:01;;;;;;;5.95;4.72;;;13.40;99.90;;;13.68;78.04;100633.47;5098741;28;20439;-78
2021/05/24 02:19:29;;;;;;;6.97;4.10;;;13.40;99.90;;;13.59;78.91;100635.41;5098850;28;20390;-77
2021/05/24 02:21:57;;;;;;;6.20;4.35;;;13.30;99.90;;;13.43;78.84;100641.94;5080737;28;20055;-78
2021/05/24 02:24:25;;;;;;;5.35;3.83;;;13.20;99.90;;;13.38;79.43;100635.84;5098587;28;20050;-77
2021/05/24 02:26:53;;;;;;;5.40;4.03;;;13.10;99.90;;;13.40;79.32;100631.38;5099015;28;20040;-78
2021/05/24 02:29:22;;;;;;;5.47;4.47;;;13.10;99.90;;;13.33;79.10;100620.91;5098874;28;20093;-77
2021/05/24 02:31:50;;;;;;;6.22;3.85;;;13.00;99.90;;;13.26;79.16;100620.13;5098632;28;20060;-77
2021/05/24 02:34:18;;;;;;;5.07;4.57;;;12.90;99.90;;;13.30;79.02;100618.28;5080660;28;20437;-77
2021/05/24 02:36:46;;;;;;;5.32;3.88;;;13.00;99.90;;;13.33;79.32;100624.44;5098563;28;20566;-77
2021/05/24 02:39:14;;;;;;;4.90;4.43;;;13.00;99.90;;;13.39;79.71;100621.63;5098531;28;20400;-77
2021/05/24 02:41:42;;;;;;;7.10;3.88;;;13.00;99.90;;;13.24;79.72;100594.53;5098473;28;20109;-77
2021/05/24 02:44:12;;;;;;;5.80;4.80;;;13.00;99.90;;;13.46;79.55;100606.47;5098457;28;20378;-78
2021/05/24 02:46:41;;;;;;;7.60;5.07;;;13.10;99.90;;;13.52;79.79;100612.53;5098390;28;20547;-78
2021/05/24 02:49:09;;;;;;;7.03;4.82;;;13.20;99.90;;;13.48;79.59;100615.28;5098761;28;20089;-78
2021/05/24 02:51:38;;;;;;;5.10;4.50;;;13.20;99.90;;;13.32;79.90;100592.56;5080423;28;20846;-78
2021/05/24 02:54:07;;;;;;;6.10;4.93;;;13.20;99.90;;;13.42;79.66;100610.97;5098674;28;20050;-78
2021/05/24 02:56:37;;;;;;;6.63;4.50;;;13.20;99.90;;;13.34;79.72;100593.41;5098602;28;20485;-78
2021/05/24 02:59:06;;;;;;;5.95;4.80;;;13.10;99.90;;;13.21;79.73;100619.38;5098669;28;20046;-79
2021/05/24 03:01:34;;;;;;;6.57;5.10;;;13.00;99.90;;;13.23;79.91;100595.44;5080301;28;20078;-77
2021/05/24 03:04:03;;;;;;;5.95;4.82;;;13.00;99.90;;;13.12;80.05;100595.66;5098223;28;20417;-78
2021/05/24 03:06:34;;;;;;;5.32;3.90;;;12.90;99.90;;;13.10;79.78;100589.50;5098929;28;20040;-78
2021/05/24 03:09:02;;;;;;;4.35;3.95;;;12.80;99.90;;;12.51;80.15;100497.66;5080330;28;20048;-78
2021/05/24 03:11:30;;;;;;;4.50;4.10;;;12.80;99.90;;;13.08;80.51;100587.75;5080401;28;20503;-78
2021/05/24 03:13:57;;;;;;;4.72;3.80;;;12.80;99.90;;;12.96;80.03;100588.84;5098593;28;20044;-79
2021/05/24 03:16:26;;;;;;;4.38;3.83;;;12.80;99.90;;;12.92;80.38;100579.19;5094960;28;20052;-78
2021/05/24 03:18:54;;;;;;;4.85;4.28;;;12.70;99.90;;;12.91;80.79;100590.69;5095060;28;20477;-78
2021/05/24 03:21:23;;;;;;;4.60;4.30;;;12.70;99.90;;;12.89;80.62;100592.50;5095293;28;20039;-78
2021/05/24 03:23:51;;;;;;;5.80;4.03;;;12.60;99.90;;;12.86;80.52;100584.59;5095139;28;20071;-77
2021/05/24 03:26:18;;;;;;;6.50;4.00;;;12.60;99.90;;;12.91;80.72;100603.94;5094884;28;20096;-78
2021/05/24 03:28:47;;;;;;;4.05;3.75;;;12.60;99.90;;;12.88;80.98;100572.16;5076906;28;20082;-77
2021/05/24 03:31:15;;;;;;;5.05;4.55;;;12.60;99.90;;;12.73;80.98;100587.50;5095033;28;20036;-77
2021/05/24 03:33:43;;;;;;;6.43;4.18;;;12.50;99.90;;;12.74;81.32;100597.22;5094775;28;20550;-78
2021/05/24 03:36:11;;;;;;;4.68;4.22;;;12.50;99.90;;;12.68;81.32;100576.94;5094951;28;20076;-77
2021/05/24 03:38:40;;;;;;;4.45;4.10;;;12.50;99.90;;;12.77;82.07;100591.84;5076713;28;20078;-77
2021/05/24 03:41:07;;;;;;;6.43;3.75;;;12.50;99.90;;;12.84;82.01;100572.25;5094872;28;20101;-77
2021/05/24 03:43:36;;;;;;;3.90;3.60;;;12.60;99.90;;;12.85;82.16;100579.31;5095135;28;20165;-77
2021/05/24 03:46:04;;;;;;;5.95;4.38;;;12.60;99.90;;;12.89;81.85;100579.22;5076483;28;20056;-77
2021/05/24 03:48:32;;;;;;;7.38;4.47;;;12.60;99.90;;;12.76;82.37;100580.34;5094794;28;20052;-77
2021/05/24 03:51:00;;;;;;;5.13;3.83;;;12.60;99.90;;;12.75;82.45;100570.66;5094712;28;20054;-77
2021/05/24 03:53:28;;;;;;;4.38;4.00;;;12.50;99.90;;;12.54;82.60;100563.91;5094613;28;20481;-75
2021/05/24 03:55:57;;;;;;;6.55;4.38;;;12.50;99.90;;;12.72;82.66;100599.88;5094372;28;20039;-76
2021/05/24 03:58:25;;;;;;;5.22;4.72;;;12.50;99.90;;;12.68;82.41;100583.13;5094501;28;20048;-77
2021/05/24 04:00:53;;;;;;;8.93;4.97;;;12.60;99.90;;;12.60;83.16;100573.59;5076149;28;20052;-77
2021/05/24 04:03:20;;;;;;;6.32;5.72;;;12.40;99.90;;;12.47;83.50;100585.28;5094366;28;20050;-76
2021/05/24 04:05:52;;;;;;;5.93;5.32;;;12.40;99.90;;;12.39;83.93;100579.22;5094382;28;20044;-76
2021/05/24 04:08:20;;;;;;;8.32;5.55;;;12.20;99.90;;;12.42;84.18;100571.22;5094373;28;20052;-77
2021/05/24 04:10:52;;;;;;;7.55;5.57;;;12.20;99.90;;;12.35;83.91;100567.78;5093963;28;20052;-77
2021/05/24 04:13:21;;;;;;;6.95;5.63;;;12.20;99.90;;;12.27;84.32;100584.75;5094448;28;20141;-76
2021/05/24 04:15:52;;;;;;;7.07;5.47;;;12.10;99.90;;;12.33;84.76;100574.03;5093785;28;20044;-75
2021/05/24 04:18:21;;;;;;;6.32;5.68;;;12.10;99.90;;;12.28;84.29;100571.47;5094521;28;20499;-76
2021/05/24 04:20:49;;;;;;;7.90;5.80;;;12.10;99.90;;;12.30;84.37;100558.16;5075893;28;20039;-77
2021/05/24 04:23:18;;;;;;;7.05;5.80;;;12.10;99.90;;;12.29;84.20;100556.44;5094105;28;20051;-75
2021/05/24 04:25:47;;;;;;;7.35;5.20;;;12.10;99.90;;;12.21;84.04;100551.25;5075591;28;20413;-73
2021/05/24 04:28:15;;;;;;;6.05;5.45;;;12.10;99.90;;;12.14;84.24;100581.41;5092778;28;20044;-76
2021/05/24 04:30:45;;;;;;;6.90;5.30;;;12.00;99.90;;;12.17;84.53;100556.63;5093864;28;20032;-74
2021/05/24 04:33:13;;;;;;;5.70;4.53;;;12.00;99.90;;;12.10;85.00;100560.28;5093966;28;20154;-75
2021/05/24 04:35:42;;;;;;;5.40;4.90;;;11.90;99.90;;;12.09;84.93;100529.34;5093508;28;20051;-75
2021/05/24 04:38:10;;;;;;;5.13;4.72;;;12.00;99.90;;;12.11;84.90;100554.06;5093856;28;20371;-73
2021/05/24 04:40:38;;;;;;;6.45;4.78;;;11.90;99.90;;;12.19;84.87;100562.78;5075506;28;20451;-72
2021/05/24 04:43:06;;;;;;;5.30;4.22;;;12.00;99.90;;;12.09;84.90;100550.56;5075416;28;20048;-74
2021/05/24 04:45:34;;;;;;;6.05;4.22;;;11.90;99.90;;;12.10;85.19;100550.53;5093450;28;20512;-74
2021/05/24 04:48:03;;;;;;;5.60;3.80;;;11.90;99.90;;;12.07;85.42;100553.25;5093247;28;20040;-74
2021/05/24 04:50:31;;;;;;;7.00;4.50;;;11.90;99.90;;;12.18;85.51;100551.28;5093138;28;20501;-73
2021/05/24 04:52:59;;;;;;;5.25;3.90;;;12.00;99.90;;;12.09;84.57;100554.09;5093461;28;20105;-74
2021/05/24 04:55:27;;;;;;;6.50;4.53;;;12.00;99.90;;;12.02;84.82;100570.13;5075078;28;20397;-75
2021/05/24 04:57:55;;;;;;;6.90;4.43;;;11.90;99.90;;;12.07;85.30;100569.16;5093193;28;20048;-74
2021/05/24 05:00:24;;;;;;;8.60;4.50;;;11.90;99.90;;;12.06;84.82;100548.81;5093365;28;20717;-74
2021/05/24 05:02:52;;;;;;;8.57;4.38;;;11.90;99.90;;;12.06;84.77;100542.66;5093449;28;20104;-74
2021/05/24 05:05:21;;;;;;;4.43;4.03;;;11.90;99.90;;;12.09;84.81;100550.56;5093270;28;20053;-75
2021/05/24 05:07:48;;;;;;;6.47;3.83;;;11.90;99.90;;;12.05;84.55;100543.56;5075131;28;20367;-74
2021/05/24 05:10:17;;;;;;;6.32;4.00;;;11.90;99.90;;;12.01;84.64;100534.78;5093231;28;20044;-72
2021/05/24 05:12:45;;;;;;;8.60;4.38;;;11.80;99.90;;;12.07;84.23;100605.38;5074881;28;20443;-73
2021/05/24 05:15:13;;;;;;;4.45;4.10;;;11.90;99.90;;;11.85;83.68;100602.16;5093157;28;20101;-77
2021/05/24 05:17:41;;;;;;;5.25;4.28;;;11.80;99.90;;;11.98;84.48;100541.91;5074430;28;20052;-73
2021/05/24 05:20:11;;;;;;;6.90;4.28;;;11.80;99.90;;;11.93;84.35;100543.72;5074841;28;20052;-74
2021/05/24 05:22:40;;;;;;;4.85;4.22;;;11.90;99.90;;;12.06;83.83;100538.22;5093071;28;20139;-73
2021/05/24 05:25:09;;;;;;;7.97;4.00;;;11.80;99.90;;;12.07;83.56;100555.00;5074661;28;20047;-73
2021/05/24 05:27:37;;;;;;;5.88;4.10;;;11.90;99.90;;;12.04;83.89;100565.66;5074698;28;20044;-73
2021/05/24 05:30:07;;;;;;;4.93;4.05;;;11.90;99.90;;;12.00;83.28;100563.97;5074569;28;20493;-74
2021/05/24 05:32:35;;;;;;;4.67;3.50;;;11.80;99.90;;;12.07;83.90;100549.69;5074678;28;20075;-74
2021/05/24 05:35:05;;;;;;;6.70;4.50;;;11.90;99.90;;;12.07;84.20;100544.41;5092645;28;20294;-74
2021/05/24 05:37:33;;;;;;;5.45;4.20;;;11.90;99.90;;;11.99;84.24;100571.03;5092797;28;20044;-75
2021/05/24 05:40:04;;;;;;;7.35;4.50;;;11.80;99.90;;;12.08;84.57;100554.13;5092351;28;20056;-74
2021/05/24 05:42:32;;;;;;;4.68;3.78;;;11.90;99.90;;;12.06;85.32;100550.63;5092667;28;20105;-73
2021/05/24 05:44:59;;;;;;;4.75;4.30;;;11.80;99.90;;;12.08;85.40;100552.31;5092310;28;20101;-73
2021/05/24 05:47:27;;;;;;;5.75;4.00;;;11.80;99.90;;;12.07;85.79;100557.66;5092337;28;20059;-74
2021/05/24 05:49:56;;;;;;;5.78;3.75;;;11.90;99.90;;;12.03;85.46;100598.38;5092609;28;20054;-74
2021/05/24 05:52:24;;;;;;;7.30;3.80;;;11.80;99.90;;;11.94;85.60;100554.34;5092339;28;20128;-74
2021/05/24 05:54:52;;;;;;;8.65;4.57;;;11.80;99.90;;;11.82;86.03;100553.63;5074299;28;20044;-75
2021/05/24 05:57:21;;;;;;;6.93;4.15;;;11.70;99.90;;;11.82;86.20;100578.34;5092648;28;20048;-74
2021/05/24 05:59:49;;;;;;;4.53;4.10;;;11.70;99.90;;;11.90;86.14;100563.22;5092431;28;20081;-74
2021/05/24 06:02:17;;;;;;;6.68;3.80;;;11.70;99.90;;;11.98;86.11;100549.84;5092504;28;20051;-74
2021/05/24 06:04:44;;;;;;;8.02;4.22;;;11.80;99.90;;;11.90;85.55;100535.84;5092438;28;20044;-74
2021/05/24 06:07:12;;;;;;;4.68;4.20;;;11.70;99.90;;;11.91;85.88;100564.06;5092412;28;20061;-74
2021/05/24 06:09:40;;;;;;;4.68;4.30;;;11.70;99.90;;;12.00;86.06;100559.50;5092409;28;20036;-75
2021/05/24 06:12:09;;;;;;;7.10;4.18;;;11.80;99.90;;;11.92;86.31;100557.91;5092413;28;20070;-74
2021/05/24 06:14:38;;;;;;;5.85;3.92;;;11.80;99.90;;;11.95;86.00;100557.84;5092383;28;20177;-74
2021/05/24 06:17:07;;;;;;;4.70;3.80;;;11.80;99.90;;;11.90;85.76;100578.25;5092136;28;20056;-74
2021/05/24 06:19:34;;;;;;;4.65;3.97;;;11.70;99.90;;;11.84;85.77;100568.63;5092277;28;20044;-73
2021/05/24 06:22:03;;;;;;;4.10;3.67;;;11.70;99.90;;;11.92;86.21;100548.19;5092071;28;20476;-73
2021/05/24 06:24:31;;;;;;;4.07;3.70;;;11.70;99.90;;;11.73;86.24;100550.19;5092152;28;20048;-74
2021/05/24 06:26:59;;;;;;;5.35;4.00;;;11.60;99.90;;;11.68;86.40;100546.75;5073567;28;20493;-75
2021/05/24 06:29:27;;;;;;;4.47;4.07;;;11.60;99.90;;;11.75;86.58;100561.66;5092504;28;20060;-75
2021/05/24 06:31:56;;;;;;;5.03;4.20;;;11.60;99.90;;;11.81;86.79;100542.13;5092164;28;20040;-75
2021/05/24 06:34:24;;;;;;;6.28;4.10;;;11.70;99.90;;;11.78;86.83;100581.94;5073876;28;20481;-74
2021/05/24 06:36:52;;;;;;;4.72;4.28;;;11.60;99.90;;;11.67;86.85;100576.78;5073824;28;20044;-74
2021/05/24 06:39:21;;;;;;;4.20;3.80;;;11.60;99.90;;;11.67;86.95;100595.31;5092069;28;20052;-73
2021/05/24 06:41:49;;;;;;;4.47;4.07;;;11.50;99.90;;;11.74;87.04;100577.59;5092076;28;20051;-73
2021/05/24 06:44:18;;;;;;;4.70;4.30;;;11.60;99.90;;;11.74;86.94;100589.06;5092098;28;20044;-75
2021/05/24 06:46:47;;;;;;;6.32;4.50;;;11.60;99.90;;;11.81;87.08;100539.50;5091958;28;20047;-75
2021/05/24 06:49:17;;;;;;;6.00;4.43;;;11.70;99.90;;;11.78;87.14;100553.69;5092099;28;20082;-74
2021/05/24 06:51:45;;;;;;;5.85;4.50;;;11.60;99.90;;;11.76;87.16;100547.53;5094504;28;20078;-75
2021/05/24 06:54:13;;;;;;;5.50;4.30;;;11.60;99.90;;;11.73;87.24;100544.91;5095568;28;20051;-75
2021/05/24 06:56:42;;;;;;;5.55;4.72;;;11.60;99.90;;;11.84;87.76;100551.81;5095301;28;20412;-74
2021/05/24 06:59:09;;;;;;;5.88;4.10;;;11.70;99.90;;;11.80;87.48;100543.06;5095569;28;20109;-75
2021/05/24 07:01:38;;;;;;;5.90;4.93;;;11.70;99.90;;;11.70;87.40;100549.38;5077048;28;20059;-74
2021/05/24 07:04:07;;;;;;;5.03;4.50;;;11.60;99.90;;;11.12;87.98;100437.19;5095357;28;20496;-73
2021/05/24 07:06:35;;;;;;;6.72;4.32;;;11.60;99.90;;;11.82;87.88;100546.56;5095293;28;20036;-73
2021/05/24 07:09:07;;;;;;;4.55;4.00;;;11.60;99.90;;;11.25;87.97;100433.44;5095377;28;20875;-74
2021/05/24 07:11:35;;;;;;;6.25;4.28;;;11.70;99.90;;;11.85;88.09;100553.56;5076925;28;20101;-74
2021/05/24 07:14:04;;;;;;;6.13;4.70;;;11.70;99.90;;;11.89;87.91;100539.38;5095422;28;20054;-73
2021/05/24 07:16:32;;;;;;;4.72;4.43;;;11.70;99.90;;;11.77;87.97;100482.13;5095280;28;20139;-74
2021/05/24 07:19:00;;;;;;;5.00;4.10;;;11.80;99.90;;;11.88;87.88;100565.03;5095133;28;20131;-74
2021/05/24 07:21:28;;;;;;;4.80;4.38;;;11.70;99.90;;;11.94;87.99;100558.75;5095291;28;20148;-75
2021/05/24 07:23:57;;;;;;;4.95;4.38;;;11.70;99.90;;;11.93;88.29;100528.72;5095193;28;20076;-76
2021/05/24 07:26:26;;;;;;;5.22;4.35;;;11.80;99.90;;;12.04;88.45;100521.47;5094896;28;20044;-74
2021/05/24 07:28:54;;;;;;;6.40;4.20;;;11.80;99.90;;;12.10;88.22;100507.25;5095138;28;20138;-74
2021/05/24 07:31:22;;;;;;;5.50;4.72;;;11.90;99.90;;;12.13;88.44;100525.75;5095173;28;20044;-75
2021/05/24 07:33:50;;;;;;;5.78;4.93;;;11.90;99.90;;;12.09;88.50;100519.63;5094845;28;20071;-75
2021/05/24 07:36:18;;;;;;;5.38;4.88;;;11.90;99.90;;;12.05;88.38;100541.78;5095076;28;20051;-75
2021/05/24 07:38:46;;;;;;;5.18;4.50;;;11.90;99.90;;;12.05;87.98;100522.34;5094908;28;20054;-75
2021/05/24 07:41:15;;;;;;;5.63;4.03;;;11.90;99.90;;;12.03;87.99;100527.69;5094627;28;20398;-76
2021/05/24 07:43:43;;;;;;;5.35;4.80;;;11.90;99.90;;;12.14;88.26;100544.28;5094629;28;20463;-75
2021/05/24 07:46:11;;;;;;;5.00;4.20;;;11.90;99.90;;;12.21;88.28;100540.66;5094670;28;20486;-75
2021/05/24 07:48:39;;;;;;;5.90;4.78;;;12.00;99.90;;;12.12;88.22;100542.53;5094670;28;20059;-75
2021/05/24 07:51:09;;;;;;;5.95;5.05;;;12.00;99.90;;;12.13;87.83;100533.69;5094820;28;20078;-76
2021/05/24 07:53:37;;;;;;;6.00;5.40;;;12.00;99.90;;;12.20;87.92;100536.22;5094397;28;20051;-77
2021/05/24 07:56:05;;;;;;;5.55;5.05;;;12.00;99.90;;;12.22;87.78;100533.53;5094242;28;20036;-76
2021/05/24 07:58:34;;;;;;;5.88;4.45;;;12.00;99.90;;;12.32;88.00;100529.84;5094293;28;20044;-76
2021/05/24 08:01:03;;;;;;;9.35;5.65;;;12.10;99.90;;;12.27;87.98;100526.41;5075862;28;20055;-76
2021/05/24 08:03:31;;;;;;;6.55;5.47;;;12.10;99.90;;;12.33;88.01;100537.78;5094676;28;20132;-76
2021/05/24 08:05:59;;;;;;;6.95;5.03;;;12.10;99.90;;;12.34;87.75;100536.00;5094486;28;20036;-76
2021/05/24 08:08:27;;;;;;;5.70;4.82;;;12.10;99.90;;;12.29;87.83;100521.97;5094325;28;20044;-76
2021/05/24 08:10:55;;;;;;;5.57;5.13;;;12.10;99.90;;;12.28;87.45;100534.31;5094324;28;20044;-76
2021/05/24 08:13:25;;;;;;;9.93;6.32;;;12.10;99.90;;;12.31;87.70;100521.00;5094060;28;20501;-76
2021/05/24 08:15:54;;;;;;;8.23;5.70;;;12.10;99.90;;;12.44;87.98;100535.81;5094100;28;20051;-76
2021/05/24 08:18:22;;;;;;;8.18;6.03;;;12.20;99.90;;;12.44;88.03;100534.94;5094309;28;20056;-77
2021/05/24 08:20:50;;;;;;;7.13;6.07;;;12.20;99.90;;;12.40;88.21;100512.03;5093895;28;20040;-77
2021/05/24 08:23:18;;;;;;;8.55;6.32;;;12.30;99.90;;;12.37;87.51;100526.22;5075944;28;20060;-77
2021/05/24 08:25:46;;;;;;;9.55;6.95;;;12.20;99.90;;;12.32;87.81;100545.75;5093964;28;20052;-76
2021/05/24 08:28:16;;;;;;;6.82;6.13;;;12.20;99.90;;;12.43;87.97;100514.63;5093602;28;20567;-76
2021/05/24 08:30:45;;;;;;;6.40;5.43;;;12.20;99.90;;;12.40;87.53;100544.75;5094131;28;20101;-76
2021/05/24 08:33:13;;;;;;;11.38;6.10;;;12.20;99.90;;;12.44;88.32;100524.34;5093857;28;20055;-77
2021/05/24 08:35:41;;;;;;;8.68;5.60;;;12.20;99.90;;;12.41;87.62;100556.19;5093635;28;20083;-77
2021/05/24 08:38:09;;;;;;;7.45;6.10;;;12.30;99.90;;;12.35;87.82;100535.97;5093613;28;20040;-76
2021/05/24 08:40:37;;;;;;;7.32;5.82;;;12.20;99.90;;;12.37;87.94;100541.22;5093761;28;20040;-76
2021/05/24 08:43:07;;;;;;;6.75;5.50;;;12.20;99.90;;;12.30;88.22;100518.38;5093822;28;20184;-77
2021/05/24 08:45:39;;;;;;;6.82;6.10;;;12.20;99.90;;;12.49;88.68;100533.06;5075469;28;20093;-77
2021/05/24 08:48:09;;;;;;;7.35;6.40;;;12.30;99.90;;;12.43;87.72;100536.72;5093740;28;20052;-77
2021/05/24 08:50:39;;;;;;;8.02;5.85;;;12.30;99.90;;;12.52;88.00;100533.88;5093718;28;20052;-77
2021/05/24 08:53:09;;;;;;;7.18;6.43;;;12.40;99.90;;;12.55;87.97;100560.38;5093643;28;20074;-76
2021/05/24 08:55:37;;;;;;;7.90;5.40;;;12.40;99.90;;;12.57;87.67;100518.78;5093578;28;20048;-77
2021/05/24 08:58:08;;;;;;;8.32;5.78;;;12.40;99.90;;;12.62;87.10;100529.28;5093391;28;20047;-78
2021/05/24 09:00:37;;;;;;;7.10;5.22;;;12.40;99.90;;;12.59;87.07;100546.16;5093523;28;20051;-76
2021/05/24 09:03:15;;;;;;;5.70;5.20;;;12.50;99.90;;;12.55;86.99;100517.94;5093392;28;20093;-74
2021/05/24 09:05:46;;;;;;;5.50;4.82;;;12.40;99.90;;;12.63;86.80;100539.03;5075086;28;20451;-75
2021/05/24 09:08:14;;;;;;;;;;;12.50;99.90;;;12.19;86.95;100430.22;5093720;28;20044;-75
2021/05/24 09:10:44;;;;;;;6.35;5.25;;;12.50;99.90;;;12.82;87.08;100534.22;5093192;28;19927;-76
2021/05/24 09:13:15;;;;;;;5.53;5.03;;;12.60;99.90;;;12.82;87.60;100521.84;5092614;28;20048;-77
2021/05/24 09:15:46;;;;;;;7.95;5.43;;;12.60;99.90;;;13.02;88.57;100524.13;5093150;28;20059;-77
2021/05/24 09:18:17;;;;;;;6.30;5.68;;;12.80;99.90;;;13.08;88.22;100519.59;5092871;28;20089;-77
2021/05/24 09:20:50;;;;;;;6.03;5.00;;;12.90;99.90;;;12.99;87.14;100540.97;5092791;28;20044;-77
2021/05/24 09:23:21;;;;;;;5.45;4.68;;;12.90;99.90;;;12.99;87.31;100522.38;5092913;28;20055;-77
2021/05/24 09:25:56;;;;;;;5.20;4.80;;;12.80;99.90;;;12.94;86.94;100520.72;5092855;28;20044;-77
2021/05/24 09:28:43;;;;;;;6.55;5.50;;;12.80;99.90;;;12.97;86.32;100526.84;5092887;28;20036;-77
2021/05/24 09:31:14;;;;;;;6.18;4.93;;;12.90;99.90;;;13.06;86.20;100529.38;5092645;28;20384;-75
2021/05/24 09:33:45;;;;;;;6.25;5.13;;;12.90;99.90;;;13.06;86.50;100533.81;5092743;28;20044;-76
2021/05/24 09:36:15;;;;;;;6.15;4.95;;;12.90;99.90;;;12.93;85.33;100535.78;5092541;28;20101;-76
2021/05/24 09:38:46;;;;;;;6.18;4.72;;;12.80;99.90;;;12.94;85.37;100563.22;5074543;28;20509;-76
2021/05/24 09:41:17;;;;;;;5.05;4.43;;;12.80;99.90;;;12.90;84.85;100543.81;5092289;28;20036;-76
2021/05/24 09:43:48;;;;;;;5.43;4.93;;;12.80;99.90;;;12.91;84.55;100537.59;5092341;28;20429;-76
2021/05/24 09:46:19;;;;;;;5.45;4.97;;;12.70;99.90;;;12.91;85.31;100521.66;5092555;28;20047;-76
2021/05/24 09:48:50;;;;;;;6.57;5.07;;;12.80;99.90;;;12.84;85.19;100506.78;5092720;28;20118;-75
2021/05/24 09:51:21;;;;;;;5.25;4.85;;;12.80;99.90;;;13.12;84.97;100526.59;5092284;28;20039;-76
2021/05/24 09:53:59;;;;;;;5.75;4.90;;;12.90;99.90;;;13.12;84.34;100526.59;5092765;28;20047;-76
2021/05/24 09:56:28;;;;;;;5.60;5.07;;;12.90;99.90;;;13.17;84.17;100532.69;5092162;28;20048;-76
2021/05/24 09:59:08;;;;;;;5.50;5.05;;;12.90;99.90;;;13.21;84.05;100544.13;5092285;28;20040;-77
2021/05/24 10:01:40;;;;;;;5.85;5.25;;;13.00;99.90;;;13.21;84.25;100534.38;5092461;28;20040;-78
2021/05/24 10:04:11;;;;;;;4.72;4.32;;;13.00;99.90;;;13.26;83.76;100524.53;5092362;28;20051;-78
2021/05/24 10:06:40;;;;;;;5.40;4.90;;;13.10;99.90;;;13.11;83.74;100516.88;5092365;28;20075;-77
2021/05/24 10:09:10;;;;;;;5.68;5.18;;;13.00;99.90;;;13.16;83.28;100536.22;5092495;28;20068;-78
2021/05/24 10:11:43;;;;;;;6.07;5.47;;;13.00;99.90;;;13.33;83.28;100541.22;5092484;28;20163;-78
2021/05/24 10:14:13;;;;;;;5.53;5.00;;;13.10;99.90;;;13.21;83.23;100525.53;5092170;28;20052;-78
2021/05/24 10:16:45;;;;;;;5.57;4.88;;;13.00;99.90;;;13.11;82.69;100523.97;5091781;28;20516;-78
2021/05/24 10:19:15;;;;;;;5.78;5.18;;;13.00;99.90;;;13.20;83.17;100519.34;5074030;28;20044;-78